Time;durP1;ratioP1;P1;durP2;ratioP2;P2;SDS_P1;SDS_P2;PMS_P1;PMS_P2;Temp;Humidity;BMP_temperature;BMP_pressure;BME280_temperature;BME280_humidity;BME280_pressure;Samples;Min_cycle;Max_cycle;Signal;HPM_P1;HPM_P2
2023/07/04 00:00:25;;;;;;;1.20;1.00;;;22.60;66.10;;;;;;5036442;28;20098;-83
2023/07/04 00:02:51;;;;;;;1.10;1.02;;;22.60;66.20;;;;;;5032124;28;20388;-83
2023/07/04 00:05:17;;;;;;;0.90;0.90;;;22.60;66.30;;;;;;5027520;28;20030;-83
2023/07/04 00:07:42;;;;;;;1.00;0.93;;;22.60;66.30;;;;;;5013545;28;20049;-83
2023/07/04 00:10:08;;;;;;;0.90;0.90;;;22.60;66.30;;;;;;5032060;28;20091;-83
2023/07/04 00:12:34;;;;;;;0.82;0.82;;;22.60;66.20;;;;;;5036101;28;20038;-82
2023/07/04 00:15:00;;;;;;;0.80;0.80;;;22.60;66.30;;;;;;5032100;28;20037;-82
2023/07/04 00:17:26;;;;;;;0.80;0.80;;;22.60;66.30;;;;;;5025250;28;20094;-82
2023/07/04 00:19:52;;;;;;;1.00;0.90;;;22.60;66.30;;;;;;5029071;28;20057;-82
2023/07/04 00:22:17;;;;;;;1.33;0.85;;;22.60;66.30;;;;;;5013023;28;20045;-82
2023/07/04 00:24:44;;;;;;;0.90;0.90;;;22.60;66.30;;;;;;5034100;28;20486;-82
2023/07/04 00:27:12;;;;;;;0.70;0.70;;;22.60;66.30;;;;;;5048939;28;20041;-82
2023/07/04 00:29:38;;;;;;;0.70;0.70;;;22.60;66.30;;;;;;5028162;28;20042;-82
2023/07/04 00:32:05;;;;;;;0.70;0.70;;;22.60;66.30;;;;;;5024727;28;20049;-82
2023/07/04 00:34:30;;;;;;;1.00;0.90;;;22.50;66.30;;;;;;5027578;28;20042;-83
2023/07/04 00:36:59;;;;;;;0.98;0.98;;;22.50;66.30;;;;;;5033226;28;20034;-82
2023/07/04 00:39:25;;;;;;;1.42;1.23;;;22.60;66.40;;;;;;5028587;28;20042;-82
2023/07/04 00:41:51;;;;;;;0.95;0.85;;;22.50;66.50;;;;;;5032708;28;20037;-83
2023/07/04 00:44:22;;;;;;;0.80;0.80;;;22.50;66.50;;;;;;5028245;28;20522;-83
2023/07/04 00:46:53;;;;;;;0.80;0.80;;;22.60;66.60;;;;;;5026606;28;20049;-82
2023/07/04 00:49:26;;;;;;;0.80;0.80;;;22.50;66.60;;;;;;5032344;28;20048;-83
2023/07/04 00:52:11;;;;;;;0.80;0.80;;;22.50;66.60;;;;;;5036687;28;20128;-83
2023/07/04 00:54:52;;;;;;;0.70;0.70;;;22.50;66.50;;;;;;5032630;28;20072;-82
2023/07/04 00:57:21;;;;;;;0.90;0.70;;;22.60;66.60;;;;;;5027300;28;20557;-82
2023/07/04 00:59:48;;;;;;;0.82;0.80;;;22.50;66.40;;;;;;5030052;28;20057;-82
2023/07/04 01:02:19;;;;;;;1.83;0.70;;;22.60;66.40;;;;;;5045918;28;20037;-82
2023/07/04 01:04:46;;;;;;;0.68;0.68;;;22.50;66.50;;;;;;5040525;28;20046;-82
2023/07/04 01:07:15;;;;;;;0.90;0.90;;;22.50;66.60;;;;;;5044349;28;20490;-82
2023/07/04 01:09:44;;;;;;;0.80;0.80;;;22.60;66.50;;;;;;5052204;28;20132;-82
2023/07/04 01:12:09;;;;;;;0.75;0.75;;;22.60;66.70;;;;;;5042509;28;20036;-82
2023/07/04 01:14:35;;;;;;;0.90;0.90;;;22.50;66.70;;;;;;5063070;28;20051;-82
2023/07/04 01:17:02;;;;;;;0.80;0.80;;;22.50;66.80;;;;;;5043871;28;20053;-83
2023/07/04 01:19:31;;;;;;;0.80;0.60;;;22.60;66.90;;;;;;5050644;28;20514;-83
2023/07/04 01:22:41;;;;;;;0.80;0.80;;;22.50;66.70;;;;;;5051373;28;20557;-83
2023/07/04 01:25:29;;;;;;;1.95;0.70;;;22.50;67.00;;;;;;5011790;28;20055;-83
2023/07/04 01:27:59;;;;;;;0.73;0.73;;;22.50;66.90;;;;;;5041613;28;20044;-82
2023/07/04 01:30:26;;;;;;;0.80;0.80;;;22.50;66.80;;;;;;5062248;28;20037;-83
2023/07/04 01:32:53;;;;;;;0.70;0.70;;;22.50;66.80;;;;;;5048462;28;20398;-82
2023/07/04 01:35:18;;;;;;;0.90;0.80;;;22.50;66.80;;;;;;5048877;28;20506;-82
2023/07/04 01:37:44;;;;;;;1.05;0.90;;;22.50;66.80;;;;;;5035199;28;20052;-83
2023/07/04 01:40:10;;;;;;;0.73;0.73;;;22.50;66.80;;;;;;5030225;28;20558;-83
2023/07/04 01:42:36;;;;;;;1.33;1.10;;;22.50;66.80;;;;;;5024966;28;20042;-83
2023/07/04 01:45:04;;;;;;;0.88;0.85;;;22.50;66.70;;;;;;5028400;28;20406;-82
2023/07/04 01:47:29;;;;;;;0.50;0.40;;;22.60;66.70;;;;;;5053702;28;20045;-83
2023/07/04 01:49:55;;;;;;;1.00;0.73;;;22.50;66.70;;;;;;5032751;28;20045;-83
2023/07/04 01:52:21;;;;;;;0.82;0.80;;;22.50;66.80;;;;;;5028854;28;20483;-83
2023/07/04 01:54:47;;;;;;;0.82;0.65;;;22.50;66.80;;;;;;5027967;28;20045;-82
2023/07/04 01:57:12;;;;;;;0.80;0.80;;;22.50;66.90;;;;;;5040716;28;20029;-83
2023/07/04 01:59:38;;;;;;;0.90;0.80;;;22.50;66.80;;;;;;5031757;28;20053;-82
2023/07/04 02:02:03;;;;;;;0.63;0.63;;;22.50;66.90;;;;;;5028659;28;20041;-82
2023/07/04 02:04:29;;;;;;;0.80;0.80;;;22.50;67.00;;;;;;5027014;28;20587;-83
2023/07/04 02:06:54;;;;;;;0.82;0.70;;;22.50;66.90;;;;;;5031798;28;20044;-82
2023/07/04 02:09:20;;;;;;;0.63;0.63;;;22.50;66.90;;;;;;5025588;28;20047;-83
2023/07/04 02:11:46;;;;;;;0.70;0.68;;;22.50;66.90;;;;;;5044067;28;20398;-82
2023/07/04 02:14:13;;;;;;;1.73;0.60;;;22.50;67.40;;;;;;5033458;28;20140;-82
2023/07/04 02:16:38;;;;;;;0.57;0.57;;;22.50;67.40;;;;;;5030301;28;20037;-82
2023/07/04 02:19:04;;;;;;;0.57;0.50;;;22.50;67.10;;;;;;5031849;28;20049;-83
2023/07/04 02:21:29;;;;;;;0.70;0.70;;;22.50;67.10;;;;;;5032711;28;20033;-83
2023/07/04 02:23:55;;;;;;;0.65;0.65;;;22.50;67.00;;;;;;5042931;28;20041;-82
2023/07/04 02:26:21;;;;;;;0.70;0.70;;;22.50;67.00;;;;;;5033450;28;20056;-83
2023/07/04 02:28:46;;;;;;;0.65;0.65;;;22.50;67.30;;;;;;5046458;28;20500;-83
2023/07/04 02:31:13;;;;;;;0.57;0.57;;;22.50;67.20;;;;;;5048685;28;20061;-83
2023/07/04 02:33:38;;;;;;;0.60;0.60;;;22.50;67.10;;;;;;5040584;28;20539;-82
2023/07/04 02:36:04;;;;;;;1.85;0.60;;;22.50;67.90;;;;;;5033129;28;20113;-83
2023/07/04 02:38:30;;;;;;;1.73;0.60;;;22.50;67.20;;;;;;5031877;28;20044;-83
2023/07/04 02:40:55;;;;;;;0.70;0.70;;;22.50;67.50;;;;;;5051365;28;20049;-83
2023/07/04 02:43:21;;;;;;;1.48;0.63;;;22.50;67.20;;;;;;5054224;28;20116;-83
2023/07/04 02:45:46;;;;;;;7.78;0.80;;;22.50;67.10;;;;;;5054362;28;20444;-83
2023/07/04 02:48:13;;;;;;;0.70;0.70;;;22.50;67.60;;;;;;5047247;28;20116;-83
2023/07/04 02:50:39;;;;;;;0.60;0.60;;;22.40;67.30;;;;;;5052121;28;20044;-83
2023/07/04 02:53:04;;;;;;;0.60;0.50;;;22.50;67.40;;;;;;5047879;28;20052;-83
2023/07/04 02:55:30;;;;;;;0.80;0.80;;;22.50;67.50;;;;;;5051481;28;20502;-83
2023/07/04 02:57:56;;;;;;;0.60;0.60;;;22.50;67.50;;;;;;5037247;28;20037;-83
2023/07/04 03:00:21;;;;;;;0.68;0.68;;;22.50;67.80;;;;;;5034153;28;20278;-83
2023/07/04 03:02:47;;;;;;;0.80;0.80;;;22.40;67.70;;;;;;5029685;28;20045;-83
2023/07/04 03:05:12;;;;;;;0.75;0.70;;;22.40;67.80;;;;;;5034405;28;20415;-83
2023/07/04 03:07:38;;;;;;;0.52;0.52;;;22.50;67.60;;;;;;5017257;28;20135;-83
2023/07/04 03:10:04;;;;;;;0.70;0.68;;;22.40;67.50;;;;;;5047847;28;20045;-83
2023/07/04 03:12:30;;;;;;;0.70;0.70;;;22.40;67.60;;;;;;5031707;28;20044;-83
2023/07/04 03:14:56;;;;;;;0.68;0.57;;;22.50;67.70;;;;;;5030367;28;20042;-83
2023/07/04 03:17:21;;;;;;;0.90;0.90;;;22.40;67.60;;;;;;5032765;28;20128;-83
2023/07/04 03:19:47;;;;;;;0.80;0.70;;;22.50;67.80;;;;;;5028977;28;20041;-83
2023/07/04 03:22:12;;;;;;;0.60;0.60;;;22.40;67.80;;;;;;5016396;28;20104;-83
2023/07/04 03:24:38;;;;;;;0.60;0.60;;;22.50;67.90;;;;;;5033077;28;20044;-83
2023/07/04 03:27:04;;;;;;;0.70;0.70;;;22.40;68.40;;;;;;5035275;28;20044;-83
2023/07/04 03:29:30;;;;;;;0.70;0.60;;;22.40;67.60;;;;;;5034030;28;20090;-83
2023/07/04 03:31:55;;;;;;;1.00;0.52;;;22.40;67.60;;;;;;5027832;28;20057;-83
2023/07/04 03:34:21;;;;;;;0.60;0.47;;;22.40;67.80;;;;;;5034048;28;20041;-83
2023/07/04 03:36:46;;;;;;;0.73;0.73;;;22.40;67.80;;;;;;5037421;28;20453;-82
2023/07/04 03:39:12;;;;;;;0.60;0.60;;;22.40;67.60;;;;;;5027478;28;20048;-83
2023/07/04 03:41:37;;;;;;;0.52;0.52;;;22.40;67.50;;;;;;5031153;28;20069;-83
2023/07/04 03:44:04;;;;;;;0.70;0.70;;;22.40;67.90;;;;;;5025778;28;20564;-83
2023/07/04 03:46:29;;;;;;;0.80;0.80;;;22.40;67.70;;;;;;5035359;28;20033;-82
2023/07/04 03:48:55;;;;;;;0.77;0.70;;;22.40;67.70;;;;;;5030006;28;20084;-83
2023/07/04 03:51:20;;;;;;;4.05;0.77;;;22.40;68.80;;;;;;5031058;28;20467;-83
2023/07/04 03:53:48;;;;;;;0.80;0.60;;;22.40;67.60;;;;;;5025962;28;20096;-83
2023/07/04 03:56:14;;;;;;;0.75;0.70;;;22.40;67.60;;;;;;5030608;28;20041;-83
2023/07/04 03:58:40;;;;;;;0.93;0.68;;;22.40;67.60;;;;;;5029541;28;20104;-83
2023/07/04 04:01:06;;;;;;;1.30;0.80;;;22.40;67.60;;;;;;5028602;28;20053;-83
2023/07/04 04:03:37;;;;;;;0.65;0.60;;;22.40;67.70;;;;;;5050600;28;20037;-82
2023/07/04 04:06:07;;;;;;;0.50;0.50;;;22.40;68.00;;;;;;5062999;28;20064;-83
2023/07/04 04:08:33;;;;;;;0.65;0.60;;;22.40;67.30;;;;;;5032288;28;20145;-83
2023/07/04 04:10:58;;;;;;;0.60;0.60;;;22.40;68.40;;;;;;5032208;28;20145;-83
2023/07/04 04:13:24;;;;;;;0.63;0.63;;;22.40;68.00;;;;;;5044049;28;20049;-82
2023/07/04 04:15:51;;;;;;;0.98;0.60;;;22.40;67.70;;;;;;5045251;28;20104;-83
2023/07/04 04:18:17;;;;;;;0.70;0.70;;;22.40;67.60;;;;;;5007144;28;20064;-84
2023/07/04 04:20:43;;;;;;;0.80;0.60;;;22.40;67.60;;;;;;5018042;28;20042;-83
2023/07/04 04:23:08;;;;;;;0.50;0.50;;;22.40;67.60;;;;;;5019332;28;20513;-82
2023/07/04 04:25:38;;;;;;;0.50;0.50;;;22.40;67.60;;;;;;5025628;28;20052;-83
2023/07/04 04:28:04;;;;;;;0.52;0.52;;;22.40;67.90;;;;;;5030637;28;20060;-82
2023/07/04 04:30:30;;;;;;;0.60;0.60;;;22.40;67.90;;;;;;5045490;28;20596;-83
2023/07/04 04:32:55;;;;;;;0.75;0.68;;;22.30;67.80;;;;;;5031442;28;20483;-82
2023/07/04 04:35:21;;;;;;;0.60;0.57;;;22.40;68.10;;;;;;5027126;28;20121;-82
2023/07/04 04:37:47;;;;;;;0.40;0.40;;;22.40;67.80;;;;;;5030569;28;20466;-82
2023/07/04 04:40:13;;;;;;;0.60;0.60;;;22.40;68.00;;;;;;5027837;28;20060;-82
2023/07/04 04:42:39;;;;;;;0.82;0.68;;;22.40;68.00;;;;;;5037264;28;20040;-83
2023/07/04 04:45:07;;;;;;;4.65;0.50;;;22.30;68.00;;;;;;5038813;28;20045;-82
2023/07/04 04:47:33;;;;;;;1.00;0.90;;;22.40;67.20;;;;;;5030786;28;20136;-84
2023/07/04 04:50:00;;;;;;;1.65;1.00;;;22.40;66.60;;;;;;5031476;28;20560;-84
2023/07/04 04:52:26;;;;;;;1.75;1.20;;;22.20;63.60;;;;;;5032275;28;20128;-80
2023/07/04 04:54:51;;;;;;;3.00;1.30;;;22.10;62.70;;;;;;5033824;28;20119;-80
2023/07/04 04:57:17;;;;;;;3.20;1.45;;;21.90;61.90;;;;;;5025856;28;20436;-80
2023/07/04 04:59:43;;;;;;;2.60;1.80;;;21.70;62.80;;;;;;5034009;28;20127;-81
2023/07/04 05:02:11;;;;;;;2.50;1.50;;;21.80;62.70;;;;;;5041195;28;20426;-80
2023/07/04 05:04:37;;;;;;;2.58;1.75;;;21.70;62.20;;;;;;5032518;28;20715;-84
2023/07/04 05:07:03;;;;;;;2.30;1.63;;;21.70;62.50;;;;;;5046261;28;20049;-83
2023/07/04 05:09:28;;;;;;;2.97;1.40;;;21.70;62.80;;;;;;5014153;28;20037;-81
2023/07/04 05:11:54;;;;;;;4.50;1.60;;;21.70;62.50;;;;;;5027764;28;20426;-84
2023/07/04 05:14:20;;;;;;;2.63;1.35;;;21.60;62.30;;;;;;5029414;28;20048;-81
2023/07/04 05:16:45;;;;;;;5.20;1.70;;;21.70;62.90;;;;;;5031743;28;20780;-83
2023/07/04 05:19:11;;;;;;;4.30;1.88;;;21.50;62.80;;;;;;5028824;28;20158;-83
2023/07/04 05:21:36;;;;;;;3.60;1.63;;;21.60;62.80;;;;;;5033253;28;20058;-83
2023/07/04 05:24:02;;;;;;;2.67;1.65;;;21.50;62.70;;;;;;5040814;28;20041;-84
2023/07/04 05:26:28;;;;;;;3.17;1.65;;;21.30;63.20;;;;;;5047838;28;20029;-80
2023/07/04 05:28:55;;;;;;;5.47;1.90;;;21.40;63.40;;;;;;5050081;28;20036;-87
2023/07/04 05:31:23;;;;;;;2.00;1.33;;;21.40;63.60;;;;;;4704904;28;9999660;-86
2023/07/04 05:33:48;;;;;;;1.90;1.42;;;21.40;63.80;;;;;;5015296;28;20057;-88
2023/07/04 05:36:19;;;;;;;3.90;1.35;;;21.30;64.00;;;;;;5035161;28;20068;-87
2023/07/04 05:38:48;;;;;;;2.28;1.60;;;21.30;63.90;;;;;;5006518;28;20040;-84
2023/07/04 05:41:15;;;;;;;3.25;1.30;;;21.30;63.90;;;;;;5026729;28;20490;-84
2023/07/04 05:43:41;;;;;;;2.63;1.55;;;21.20;64.00;;;;;;5031638;28;20140;-87
2023/07/04 05:46:07;;;;;;;2.72;1.40;;;21.30;63.80;;;;;;5044430;28;20132;-86
2023/07/04 05:48:33;;;;;;;4.30;1.95;;;21.30;64.00;;;;;;5031153;28;20710;-85
2023/07/04 05:51:00;;;;;;;3.10;1.63;;;21.30;63.80;;;;;;5014927;28;20128;-86
2023/07/04 05:53:27;;;;;;;4.05;2.03;;;21.30;63.90;;;;;;5042739;28;20512;-88
2023/07/04 05:56:00;;;;;;;5.97;2.00;;;21.10;64.20;;;;;;5033036;28;20040;-87
2023/07/04 05:58:26;;;;;;;2.50;1.40;;;21.10;64.20;;;;;;5015372;28;20033;-87
2023/07/04 06:00:52;;;;;;;1.92;1.48;;;21.20;65.20;;;;;;5045701;28;20423;-86
2023/07/04 06:03:17;;;;;;;2.90;1.27;;;21.30;65.60;;;;;;5032391;28;20040;-85
2023/07/04 06:05:43;;;;;;;2.35;1.67;;;21.40;65.50;;;;;;5062963;28;20041;-85
2023/07/04 06:08:09;;;;;;;3.67;1.60;;;21.40;65.40;;;;;;5049028;28;20037;-85
2023/07/04 06:10:35;;;;;;;2.20;1.60;;;21.50;65.40;;;;;;5055334;28;20045;-85
2023/07/04 06:13:01;;;;;;;2.08;1.40;;;21.50;65.30;;;;;;5032108;28;20538;-85
2023/07/04 06:15:26;;;;;;;3.28;1.65;;;21.50;65.40;;;;;;5031575;28;20045;-85
2023/07/04 06:17:52;;;;;;;2.00;1.27;;;21.60;65.60;;;;;;5029580;28;20743;-85
2023/07/04 06:20:19;;;;;;;2.00;1.58;;;21.60;65.80;;;;;;5033651;28;20049;-85
2023/07/04 06:22:44;;;;;;;3.10;1.27;;;21.60;66.00;;;;;;5033327;28;20035;-85
2023/07/04 06:25:10;;;;;;;2.65;1.48;;;21.60;66.30;;;;;;5036526;28;20045;-85
2023/07/04 06:27:36;;;;;;;2.22;1.30;;;21.70;66.70;;;;;;5036925;28;20048;-85
2023/07/04 06:30:01;;;;;;;2.00;1.30;;;21.60;66.70;;;;;;5032275;28;20053;-85
2023/07/04 06:32:27;;;;;;;1.73;1.25;;;21.70;66.80;;;;;;5033672;28;20037;-85
2023/07/04 06:34:53;;;;;;;1.60;1.27;;;21.70;66.90;;;;;;5033079;28;20051;-85
2023/07/04 06:37:18;;;;;;;2.88;1.33;;;21.70;67.70;;;;;;5031205;28;20387;-85
2023/07/04 06:39:44;;;;;;;1.35;1.13;;;21.70;67.00;;;;;;5033141;28;20076;-85
2023/07/04 06:42:09;;;;;;;2.83;1.10;;;21.70;67.10;;;;;;5026610;28;20041;-85
2023/07/04 06:44:35;;;;;;;2.22;1.42;;;21.80;67.30;;;;;;5032393;28;20461;-85
2023/07/04 06:47:00;;;;;;;2.17;1.38;;;21.70;67.30;;;;;;5045094;28;20061;-85
2023/07/04 06:49:26;;;;;;;1.20;1.10;;;21.80;67.30;;;;;;5031282;28;20054;-85
2023/07/04 06:51:52;;;;;;;1.40;1.30;;;21.80;67.40;;;;;;5052481;28;20095;-83
2023/07/04 06:54:17;;;;;;;2.25;0.85;;;21.80;67.50;;;;;;5030183;28;20052;-85
2023/07/04 06:56:43;;;;;;;1.00;0.90;;;21.80;67.50;;;;;;5032404;28;20638;-85
2023/07/04 06:59:09;;;;;;;1.88;1.25;;;21.80;67.60;;;;;;5031643;28;20094;-85
2023/07/04 07:01:34;;;;;;;1.15;0.95;;;21.80;67.70;;;;;;5033529;28;20100;-85
2023/07/04 07:04:00;;;;;;;1.98;1.10;;;21.80;68.00;;;;;;5037149;28;20522;-85
2023/07/04 07:06:26;;;;;;;1.13;1.02;;;21.80;68.20;;;;;;5054543;28;20563;-85
2023/07/04 07:08:52;;;;;;;1.80;1.10;;;21.80;68.20;;;;;;5032521;28;20076;-85
2023/07/04 07:11:18;;;;;;;1.85;1.30;;;21.80;68.30;;;;;;5018769;28;20522;-85
2023/07/04 07:13:46;;;;;;;2.38;1.40;;;21.90;68.60;;;;;;5047835;28;20558;-85
2023/07/04 07:16:23;;;;;;;2.35;1.20;;;21.80;68.60;;;;;;5029698;28;20065;-84
2023/07/04 07:18:49;;;;;;;2.72;1.13;;;21.90;68.80;;;;;;5033092;28;20025;-79
2023/07/04 07:21:19;;;;;;;1.80;1.23;;;21.80;68.60;;;;;;5035963;28;20049;-84
2023/07/04 07:23:45;;;;;;;2.35;1.30;;;21.90;68.90;;;;;;5028132;28;20129;-85
2023/07/04 07:26:12;;;;;;;2.13;1.05;;;21.90;68.90;;;;;;5017788;28;20136;-85
2023/07/04 07:28:39;;;;;;;0.90;0.90;;;21.90;68.80;;;;;;5049663;28;20575;-85
2023/07/04 07:31:08;;;;;;;1.05;0.90;;;21.90;69.00;;;;;;5031369;28;20044;-85
2023/07/04 07:33:34;;;;;;;1.63;1.10;;;21.90;69.10;;;;;;5034043;28;20120;-85
2023/07/04 07:36:06;;;;;;;2.13;1.52;;;21.90;69.30;;;;;;5015281;28;20079;-85
2023/07/04 07:38:32;;;;;;;0.88;0.88;;;21.90;69.20;;;;;;5034659;28;20131;-84
2023/07/04 07:40:57;;;;;;;1.50;1.00;;;21.90;69.50;;;;;;5029946;28;20132;-85
2023/07/04 07:43:23;;;;;;;1.77;1.05;;;21.90;69.50;;;;;;5045411;28;20507;-85
2023/07/04 07:45:49;;;;;;;2.03;1.05;;;21.90;69.60;;;;;;5045316;28;20041;-85
2023/07/04 07:48:16;;;;;;;1.08;0.95;;;21.90;69.60;;;;;;5049456;28;20037;-85
2023/07/04 07:50:42;;;;;;;1.17;1.08;;;21.90;69.80;;;;;;5044210;28;20049;-85
2023/07/04 07:53:08;;;;;;;2.35;1.00;;;21.90;69.60;;;;;;5033059;28;20132;-84
2023/07/04 07:55:33;;;;;;;1.17;1.08;;;21.90;69.70;;;;;;5045066;28;20435;-85
2023/07/04 07:57:59;;;;;;;1.20;0.98;;;21.90;69.90;;;;;;5030606;28;20095;-86
2023/07/04 08:00:24;;;;;;;1.50;1.00;;;21.90;69.80;;;;;;5049188;28;20052;-85
2023/07/04 08:02:51;;;;;;;0.85;0.82;;;21.90;69.80;;;;;;5031048;28;20039;-84
2023/07/04 08:05:16;;;;;;;1.38;0.98;;;21.90;69.70;;;;;;5050459;28;20059;-84
2023/07/04 08:07:42;;;;;;;1.67;1.00;;;21.90;69.70;;;;;;5051506;28;20049;-84
2023/07/04 08:10:08;;;;;;;1.35;1.05;;;21.90;69.70;;;;;;5032804;28;20060;-84
2023/07/04 08:12:33;;;;;;;1.08;0.90;;;21.90;69.80;;;;;;5052303;28;20028;-84
2023/07/04 08:14:59;;;;;;;0.70;0.70;;;21.90;69.80;;;;;;5048099;28;20064;-84
2023/07/04 08:17:25;;;;;;;0.93;0.82;;;21.90;69.90;;;;;;5051530;28;20045;-84
2023/07/04 08:19:51;;;;;;;0.80;0.80;;;21.90;69.90;;;;;;5051176;28;20050;-84
2023/07/04 08:22:17;;;;;;;0.93;0.80;;;22.00;70.00;;;;;;5047568;28;20399;-84
2023/07/04 08:24:42;;;;;;;1.40;1.02;;;22.00;70.00;;;;;;5052401;28;20596;-84
2023/07/04 08:27:08;;;;;;;0.90;0.80;;;21.90;70.00;;;;;;5051910;28;20032;-84
2023/07/04 08:29:33;;;;;;;0.85;0.70;;;22.00;70.10;;;;;;5052321;28;20056;-84
2023/07/04 08:31:59;;;;;;;1.25;1.15;;;22.00;70.00;;;;;;5049938;28;20036;-84
2023/07/04 08:34:25;;;;;;;0.90;0.75;;;22.00;70.00;;;;;;5053574;28;20463;-84
2023/07/04 08:36:50;;;;;;;0.93;0.82;;;22.00;70.10;;;;;;5052756;28;20131;-84
2023/07/04 08:39:17;;;;;;;1.05;1.00;;;22.00;70.10;;;;;;5030854;28;20048;-84
2023/07/04 08:41:47;;;;;;;1.00;0.90;;;22.00;70.10;;;;;;5028019;28;20045;-84
2023/07/04 08:44:14;;;;;;;1.25;0.95;;;22.00;70.70;;;;;;5036624;28;20073;-84
2023/07/04 08:46:43;;;;;;;0.80;0.80;;;22.00;70.80;;;;;;5027803;28;20084;-84
2023/07/04 08:49:24;;;;;;;0.90;0.80;;;22.00;70.70;;;;;;5018970;28;20036;-84
2023/07/04 08:51:59;;;;;;;0.75;0.73;;;22.00;70.20;;;;;;5050683;28;20029;-84
2023/07/04 08:54:25;;;;;;;0.70;0.70;;;22.00;70.30;;;;;;5033673;28;20405;-84
2023/07/04 08:56:50;;;;;;;0.77;0.73;;;22.00;70.50;;;;;;5033004;28;20045;-84
2023/07/04 08:59:21;;;;;;;0.95;0.70;;;22.00;70.50;;;;;;5027240;28;20514;-84
2023/07/04 09:02:24;;;;;;;0.95;0.95;;;22.00;70.60;;;;;;5045872;28;20073;-84
2023/07/04 09:05:12;;;;;;;1.13;0.85;;;22.00;70.70;;;;;;5029019;28;20037;-84
2023/07/04 09:07:45;;;;;;;0.60;0.60;;;22.00;70.50;;;;;;5030129;28;20053;-84
2023/07/04 09:10:29;;;;;;;;;;;22.00;70.30;;;;;;5029663;28;20045;-84
2023/07/04 09:12:55;;;;;;;0.73;0.70;;;22.00;70.20;;;;;;5029718;28;19928;-83
2023/07/04 09:15:32;;;;;;;0.68;0.60;;;22.00;70.20;;;;;;5036573;28;20045;-84
2023/07/04 09:18:48;;;;;;;0.77;0.68;;;22.10;70.50;;;;;;5027625;28;20128;-84
2023/07/04 09:21:14;;;;;;;;;;;22.10;70.50;;;;;;5021714;28;20033;-84
2023/07/04 09:23:40;;;;;;;0.63;0.60;;;22.00;70.50;;;;;;5030088;28;19921;-84
2023/07/04 09:26:06;;;;;;;0.55;0.55;;;22.10;70.70;;;;;;5038103;28;20103;-84
2023/07/04 09:28:32;;;;;;;0.80;0.80;;;22.00;70.80;;;;;;5040836;28;20096;-84
2023/07/04 09:30:58;;;;;;;0.80;0.60;;;22.00;71.30;;;;;;5014212;28;21321;-84
2023/07/04 09:33:25;;;;;;;0.70;0.70;;;22.00;71.10;;;;;;5045576;28;20128;-84
2023/07/04 09:35:50;;;;;;;0.90;0.80;;;22.00;70.80;;;;;;5028443;28;20414;-84
2023/07/04 09:38:16;;;;;;;0.82;0.73;;;22.00;70.30;;;;;;5031881;28;22451;-84
2023/07/04 09:40:52;;;;;;;0.77;0.77;;;22.10;70.30;;;;;;5027044;28;20443;-84
2023/07/04 09:43:27;;;;;;;0.75;0.75;;;22.10;70.20;;;;;;5030159;28;20066;-83
2023/07/04 09:46:29;;;;;;;0.60;0.60;;;22.10;70.10;;;;;;5052352;28;20107;-84
2023/07/04 09:48:56;;;;;;;0.98;0.88;;;22.10;70.10;;;;;;5018694;28;20596;-84
2023/07/04 09:51:28;;;;;;;0.50;0.50;;;22.10;70.10;;;;;;5024413;28;20059;-84
2023/07/04 09:54:19;;;;;;;0.70;0.65;;;22.10;70.10;;;;;;5026693;28;20517;-84
2023/07/04 09:56:44;;;;;;;0.57;0.57;;;22.10;70.00;;;;;;5048680;28;20045;-84
2023/07/04 09:59:37;;;;;;;0.95;0.57;;;22.10;70.00;;;;;;5029373;28;20384;-84
2023/07/04 10:02:18;;;;;;;0.75;0.75;;;22.10;70.10;;;;;;5039506;28;20391;-84
2023/07/04 10:04:45;;;;;;;0.80;0.60;;;22.10;69.90;;;;;;5045530;28;20064;-84
2023/07/04 10:07:13;;;;;;;0.68;0.68;;;22.10;69.80;;;;;;5044051;28;20048;-84
2023/07/04 10:10:01;;;;;;;0.95;0.60;;;22.10;69.80;;;;;;5066015;28;20514;-84
2023/07/04 10:12:29;;;;;;;0.60;0.55;;;22.10;69.80;;;;;;5046331;28;20037;-84
2023/07/04 10:14:56;;;;;;;0.88;0.60;;;22.10;69.80;;;;;;5016818;28;20410;-84
2023/07/04 10:17:27;;;;;;;0.50;0.50;;;22.10;69.70;;;;;;4991096;28;20132;-84
2023/07/04 10:19:55;;;;;;;0.98;0.73;;;22.10;69.60;;;;;;4989244;28;20592;-84
2023/07/04 10:22:38;;;;;;;0.70;0.70;;;22.10;69.60;;;;;;4987647;28;20777;-84
2023/07/04 10:25:06;;;;;;;0.40;0.40;;;22.20;69.60;;;;;;4994630;28;20033;-84
2023/07/04 10:27:36;;;;;;;0.70;0.52;;;22.20;69.50;;;;;;4985064;28;20044;-84
2023/07/04 10:30:06;;;;;;;0.63;0.60;;;22.20;69.50;;;;;;5036005;28;20124;-84
2023/07/04 10:32:42;;;;;;;0.70;0.65;;;22.20;70.30;;;;;;5008748;28;20038;-84
2023/07/04 10:35:10;;;;;;;0.50;0.50;;;22.20;69.50;;;;;;4997770;28;20054;-84
2023/07/04 10:37:37;;;;;;;0.70;0.52;;;22.20;69.50;;;;;;4983969;28;20038;-84
2023/07/04 10:40:05;;;;;;;0.50;0.50;;;22.10;69.60;;;;;;4988333;28;20057;-85
2023/07/04 10:42:40;;;;;;;0.95;0.80;;;22.20;69.50;;;;;;4999842;28;20497;-85
2023/07/04 10:45:06;;;;;;;0.65;0.60;;;22.20;69.40;;;;;;5007066;28;20034;-85
2023/07/04 10:47:34;;;;;;;0.68;0.68;;;22.20;69.30;;;;;;5019095;28;20047;-85
2023/07/04 10:50:06;;;;;;;0.45;0.45;;;22.20;69.40;;;;;;5001857;28;20061;-85
2023/07/04 10:52:33;;;;;;;0.60;0.60;;;22.20;69.40;;;;;;5025205;28;20127;-85
2023/07/04 10:54:59;;;;;;;0.50;0.50;;;22.20;70.30;;;;;;5011017;28;20500;-85
2023/07/04 10:57:48;;;;;;;0.52;0.40;;;22.20;69.80;;;;;;4987982;28;20161;-85
2023/07/04 11:00:39;;;;;;;1.02;0.70;;;22.20;70.20;;;;;;5008970;28;20107;-85
2023/07/04 11:03:15;;;;;;;0.43;0.40;;;22.20;70.00;;;;;;5001625;28;20045;-84
2023/07/04 11:05:42;;;;;;;0.70;0.43;;;22.20;70.00;;;;;;5025301;28;20137;-85
2023/07/04 11:08:13;;;;;;;0.60;0.60;;;22.20;69.90;;;;;;5001006;28;20391;-84
2023/07/04 11:10:41;;;;;;;0.40;0.40;;;22.20;69.20;;;;;;4992320;28;20101;-85
2023/07/04 11:13:07;;;;;;;0.38;0.30;;;22.20;69.00;;;;;;5001670;28;20029;-84
2023/07/04 11:15:36;;;;;;;0.52;0.52;;;22.20;69.20;;;;;;5016998;28;20423;-85
2023/07/04 11:18:01;;;;;;;0.52;0.40;;;22.30;69.10;;;;;;5033479;28;20043;-85
2023/07/04 11:20:51;;;;;;;0.60;0.60;;;22.30;69.00;;;;;;5032224;28;20049;-85
2023/07/04 11:23:19;;;;;;;0.70;0.70;;;22.30;69.10;;;;;;5028647;28;20368;-84
2023/07/04 11:25:44;;;;;;;0.55;0.50;;;22.30;68.50;;;;;;5031550;28;20040;-85
2023/07/04 11:28:21;;;;;;;0.70;0.50;;;22.30;68.60;;;;;;5035307;28;20033;-75
2023/07/04 11:30:49;;;;;;;0.50;0.50;;;22.30;68.40;;;;;;5035991;28;20059;-75
2023/07/04 11:33:38;;;;;;;0.80;0.52;;;22.30;68.40;;;;;;5024896;28;20538;-75
2023/07/04 11:36:14;;;;;;;0.50;0.40;;;22.30;68.40;;;;;;5015988;28;20034;-76
2023/07/04 11:38:42;;;;;;;0.57;0.55;;;22.30;68.30;;;;;;5012150;28;20057;-75
2023/07/04 11:41:08;;;;;;;0.40;0.40;;;22.30;68.20;;;;;;5022465;28;20416;-75
2023/07/04 11:43:35;;;;;;;0.30;0.30;;;22.30;68.40;;;;;;5006770;28;20112;-75
2023/07/04 11:46:00;;;;;;;1.33;0.60;;;22.30;69.50;;;;;;5010605;28;20046;-75
2023/07/04 11:48:27;;;;;;;0.40;0.40;;;22.30;69.10;;;;;;5017517;28;20054;-75
2023/07/04 11:50:58;;;;;;;0.40;0.40;;;22.30;69.00;;;;;;5013484;28;20189;-75
2023/07/04 11:53:33;;;;;;;0.47;0.40;;;22.30;69.00;;;;;;5009373;28;20061;-75
2023/07/04 11:56:19;;;;;;;0.40;0.40;;;22.30;68.90;;;;;;5022280;28;20042;-75
2023/07/04 11:58:45;;;;;;;0.38;0.38;;;22.30;68.70;;;;;;5008442;28;20050;-75
2023/07/04 12:01:12;;;;;;;0.30;0.30;;;22.30;68.40;;;;;;5030350;28;20439;-75
2023/07/04 12:03:48;;;;;;;0.82;0.40;;;22.30;68.40;;;;;;5000340;28;20506;-74
2023/07/04 12:06:40;;;;;;;0.40;0.40;;;22.30;68.40;;;;;;5022459;28;20088;-75
2023/07/04 12:09:05;;;;;;;0.50;0.50;;;22.40;68.40;;;;;;5007371;28;20049;-75
2023/07/04 12:11:42;;;;;;;0.60;0.40;;;22.40;68.30;;;;;;5010125;28;20045;-75
2023/07/04 12:14:10;;;;;;;0.50;0.50;;;22.40;69.00;;;;;;5007852;28;20057;-75
2023/07/04 12:16:36;;;;;;;0.57;0.57;;;22.40;68.40;;;;;;5008446;28;20137;-75
2023/07/04 12:19:04;;;;;;;0.40;0.40;;;22.40;68.30;;;;;;5028409;28;20500;-75
2023/07/04 12:21:32;;;;;;;0.40;0.40;;;22.40;68.20;;;;;;5014904;28;20054;-75
2023/07/04 12:24:03;;;;;;;0.50;0.50;;;22.40;68.10;;;;;;5009361;28;20049;-75
2023/07/04 12:26:32;;;;;;;0.70;0.68;;;22.40;68.90;;;;;;5007763;28;20041;-75
2023/07/04 12:29:00;;;;;;;0.55;0.45;;;22.40;68.20;;;;;;5014735;28;20061;-75
2023/07/04 12:31:26;;;;;;;0.30;0.30;;;22.40;68.20;;;;;;5013250;28;22474;-75
2023/07/04 12:33:52;;;;;;;0.38;0.38;;;22.40;68.10;;;;;;5047008;28;20041;-75
2023/07/04 12:36:19;;;;;;;0.35;0.35;;;22.40;68.00;;;;;;5017150;28;20431;-75
2023/07/04 12:38:49;;;;;;;0.40;0.40;;;22.40;68.00;;;;;;5015703;28;20410;-75
2023/07/04 12:41:28;;;;;;;4.53;0.30;;;22.50;68.10;;;;;;5030486;28;20049;-75
2023/07/04 12:44:00;;;;;;;1.13;0.30;;;22.50;68.00;;;;;;5030950;28;20050;-75
2023/07/04 12:46:25;;;;;;;0.77;0.43;;;22.50;67.90;;;;;;5033069;28;20060;-75
2023/07/04 12:48:51;;;;;;;0.30;0.30;;;22.50;68.00;;;;;;5034006;28;20491;-75
2023/07/04 12:51:19;;;;;;;0.30;0.30;;;22.50;68.00;;;;;;5025513;28;20443;-75
2023/07/04 12:53:44;;;;;;;0.40;0.40;;;22.50;67.80;;;;;;5030286;28;20033;-75